sensor_id;sensor_type;location;lat;lon;timestamp;pressure;altitude;pressure_sealevel;temperature;humidity
70841;BME280;58465;51.534;9.934;2023-06-14T00:00:45;99876.13;;;19.33;36.99
70841;BME280;58465;51.534;9.934;2023-06-14T00:03:11;99876.44;;;19.28;36.71
70841;BME280;58465;51.534;9.934;2023-06-14T00:05:37;99872.25;;;19.23;36.86
70841;BME280;58465;51.534;9.934;2023-06-14T00:08:06;99872.63;;;19.17;37.13
70841;BME280;58465;51.534;9.934;2023-06-14T00:10:33;99872.13;;;19.10;37.55
70841;BME280;58465;51.534;9.934;2023-06-14T00:13:03;99870.06;;;19.00;37.67
70841;BME280;58465;51.534;9.934;2023-06-14T00:15:30;99871.50;;;18.75;38.30
70841;BME280;58465;51.534;9.934;2023-06-14T00:17:56;99881.91;;;18.83;38.47
70841;BME280;58465;51.534;9.934;2023-06-14T00:20:21;99880.25;;;18.65;38.91
70841;BME280;58465;51.534;9.934;2023-06-14T00:22:47;99881.66;;;18.72;38.44
70841;BME280;58465;51.534;9.934;2023-06-14T00:25:13;99880.63;;;18.59;39.03
70841;BME280;58465;51.534;9.934;2023-06-14T00:27:38;99875.63;;;18.51;39.05
70841;BME280;58465;51.534;9.934;2023-06-14T00:30:04;99880.94;;;18.37;39.76
70841;BME280;58465;51.534;9.934;2023-06-14T00:32:29;99874.91;;;18.47;39.54
70841;BME280;58465;51.534;9.934;2023-06-14T00:34:54;99883.56;;;18.54;39.21
70841;BME280;58465;51.534;9.934;2023-06-14T00:37:20;99873.88;;;18.50;39.59
70841;BME280;58465;51.534;9.934;2023-06-14T00:39:45;99875.97;;;18.45;39.75
70841;BME280;58465;51.534;9.934;2023-06-14T00:42:10;99877.69;;;18.46;39.47
70841;BME280;58465;51.534;9.934;2023-06-14T00:44:36;99886.00;;;18.43;39.63
70841;BME280;58465;51.534;9.934;2023-06-14T00:47:01;99885.31;;;18.39;39.68
70841;BME280;58465;51.534;9.934;2023-06-14T00:49:28;99879.53;;;18.30;40.25
70841;BME280;58465;51.534;9.934;2023-06-14T00:51:54;99882.09;;;18.33;39.80
70841;BME280;58465;51.534;9.934;2023-06-14T00:54:20;99880.44;;;18.14;40.71
70841;BME280;58465;51.534;9.934;2023-06-14T00:56:45;99875.44;;;18.07;40.49
70841;BME280;58465;51.534;9.934;2023-06-14T00:59:10;99870.44;;;17.99;41.02
70841;BME280;58465;51.534;9.934;2023-06-14T01:01:36;99870.22;;;18.04;40.84
70841;BME280;58465;51.534;9.934;2023-06-14T01:04:02;99871.16;;;18.03;40.59
70841;BME280;58465;51.534;9.934;2023-06-14T01:06:34;99880.06;;;18.05;40.93
70841;BME280;58465;51.534;9.934;2023-06-14T01:11:57;99870.28;;;18.02;41.20
70841;BME280;58465;51.534;9.934;2023-06-14T01:14:25;99878.41;;;18.02;40.96
70841;BME280;58465;51.534;9.934;2023-06-14T01:16:53;99870.88;;;17.92;41.28
70841;BME280;58465;51.534;9.934;2023-06-14T01:19:18;99866.78;;;17.85;41.43
70841;BME280;58465;51.534;9.934;2023-06-14T01:21:48;99868.63;;;17.84;41.60
70841;BME280;58465;51.534;9.934;2023-06-14T01:24:16;99876.88;;;17.81;41.76
70841;BME280;58465;51.534;9.934;2023-06-14T01:26:45;99881.91;;;17.71;42.01
70841;BME280;58465;51.534;9.934;2023-06-14T01:29:10;99877.66;;;17.67;42.17
70841;BME280;58465;51.534;9.934;2023-06-14T01:31:37;99877.31;;;17.73;41.96
70841;BME280;58465;51.534;9.934;2023-06-14T01:34:06;99888.97;;;17.74;41.90
70841;BME280;58465;51.534;9.934;2023-06-14T01:36:32;99890.88;;;17.72;41.72
70841;BME280;58465;51.534;9.934;2023-06-14T01:38:58;99885.41;;;17.73;41.97
70841;BME280;58465;51.534;9.934;2023-06-14T01:41:25;99886.22;;;17.58;42.45
70841;BME280;58465;51.534;9.934;2023-06-14T01:43:52;99884.69;;;17.53;42.79
70841;BME280;58465;51.534;9.934;2023-06-14T01:46:18;99889.78;;;17.59;42.42
70841;BME280;58465;51.534;9.934;2023-06-14T01:48:44;99885.16;;;17.61;42.93
70841;BME280;58465;51.534;9.934;2023-06-14T01:51:09;99887.56;;;17.67;42.18
70841;BME280;58465;51.534;9.934;2023-06-14T01:53:35;99883.13;;;17.66;42.26
70841;BME280;58465;51.534;9.934;2023-06-14T01:56:01;99887.84;;;17.61;42.48
70841;BME280;58465;51.534;9.934;2023-06-14T01:58:26;99890.88;;;17.55;42.47
70841;BME280;58465;51.534;9.934;2023-06-14T02:00:51;99897.25;;;17.54;42.68
70841;BME280;58465;51.534;9.934;2023-06-14T02:03:20;99893.28;;;17.43;43.06
70841;BME280;58465;51.534;9.934;2023-06-14T02:05:45;99894.50;;;17.38;43.07
70841;BME280;58465;51.534;9.934;2023-06-14T02:08:10;99890.84;;;17.39;43.35
70841;BME280;58465;51.534;9.934;2023-06-14T02:10:36;99891.72;;;17.39;43.14
70841;BME280;58465;51.534;9.934;2023-06-14T02:13:01;99890.91;;;17.37;43.09
70841;BME280;58465;51.534;9.934;2023-06-14T02:15:26;99896.34;;;17.20;43.78
70841;BME280;58465;51.534;9.934;2023-06-14T02:17:58;99885.69;;;17.17;43.87
70841;BME280;58465;51.534;9.934;2023-06-14T02:20:23;99884.81;;;17.17;44.01
70841;BME280;58465;51.534;9.934;2023-06-14T02:22:49;99892.84;;;17.18;44.15
70841;BME280;58465;51.534;9.934;2023-06-14T02:25:14;99886.56;;;17.18;43.88
70841;BME280;58465;51.534;9.934;2023-06-14T02:27:40;99891.22;;;17.14;44.19
70841;BME280;58465;51.534;9.934;2023-06-14T02:30:06;99897.66;;;17.12;44.37
70841;BME280;58465;51.534;9.934;2023-06-14T02:32:32;99903.06;;;17.12;44.09
70841;BME280;58465;51.534;9.934;2023-06-14T02:35:01;99900.06;;;17.00;44.47
70841;BME280;58465;51.534;9.934;2023-06-14T02:37:26;99902.75;;;17.00;44.71
70841;BME280;58465;51.534;9.934;2023-06-14T02:39:51;99902.97;;;16.96;44.63
70841;BME280;58465;51.534;9.934;2023-06-14T02:42:16;99899.06;;;17.01;44.34
70841;BME280;58465;51.534;9.934;2023-06-14T02:44:42;99905.19;;;17.05;44.45
70841;BME280;58465;51.534;9.934;2023-06-14T02:47:08;99902.56;;;17.03;44.40
70841;BME280;58465;51.534;9.934;2023-06-14T02:49:34;99901.94;;;16.98;44.99
70841;BME280;58465;51.534;9.934;2023-06-14T02:51:59;99903.66;;;16.82;45.30
70841;BME280;58465;51.534;9.934;2023-06-14T02:54:24;99908.34;;;16.79;45.60
70841;BME280;58465;51.534;9.934;2023-06-14T02:56:50;99908.75;;;16.71;45.61
70841;BME280;58465;51.534;9.934;2023-06-14T02:59:15;99908.97;;;16.66;45.83
70841;BME280;58465;51.534;9.934;2023-06-14T03:01:42;99913.97;;;16.74;45.72
70841;BME280;58465;51.534;9.934;2023-06-14T03:04:08;99906.25;;;16.66;46.07
70841;BME280;58465;51.534;9.934;2023-06-14T03:06:33;99912.66;;;16.64;46.24
70841;BME280;58465;51.534;9.934;2023-06-14T03:08:59;99918.78;;;16.67;46.09
70841;BME280;58465;51.534;9.934;2023-06-14T03:11:26;99926.81;;;16.69;45.65
70841;BME280;58465;51.534;9.934;2023-06-14T03:13:52;99926.44;;;16.58;46.04
70841;BME280;58465;51.534;9.934;2023-06-14T03:16:18;99935.09;;;16.46;46.33
70841;BME280;58465;51.534;9.934;2023-06-14T03:18:47;99933.53;;;16.42;46.64
70841;BME280;58465;51.534;9.934;2023-06-14T03:21:12;99926.53;;;16.38;46.58
70841;BME280;58465;51.534;9.934;2023-06-14T03:23:37;99929.00;;;16.23;46.99
70841;BME280;58465;51.534;9.934;2023-06-14T03:26:02;99922.81;;;16.21;47.36
70841;BME280;58465;51.534;9.934;2023-06-14T03:28:28;99930.59;;;16.27;47.11
70841;BME280;58465;51.534;9.934;2023-06-14T03:30:53;99931.53;;;16.26;47.24
70841;BME280;58465;51.534;9.934;2023-06-14T03:33:18;99940.66;;;16.24;47.38
70841;BME280;58465;51.534;9.934;2023-06-14T03:35:44;99945.00;;;16.26;47.63
70841;BME280;58465;51.534;9.934;2023-06-14T03:38:09;99946.25;;;16.19;47.62
70841;BME280;58465;51.534;9.934;2023-06-14T03:40:35;99951.34;;;16.07;48.17
70841;BME280;58465;51.534;9.934;2023-06-14T03:43:00;99957.38;;;15.93;48.46
70841;BME280;58465;51.534;9.934;2023-06-14T03:45:26;99949.50;;;15.88;48.75
70841;BME280;58465;51.534;9.934;2023-06-14T03:47:51;99955.78;;;16.08;48.08
70841;BME280;58465;51.534;9.934;2023-06-14T03:50:17;99956.66;;;16.08;48.42
70841;BME280;58465;51.534;9.934;2023-06-14T03:52:43;99961.03;;;16.11;48.30
70841;BME280;58465;51.534;9.934;2023-06-14T03:55:09;99960.47;;;16.04;48.39
70841;BME280;58465;51.534;9.934;2023-06-14T03:57:36;99959.94;;;16.15;48.33
70841;BME280;58465;51.534;9.934;2023-06-14T04:00:02;99966.50;;;16.09;48.57
70841;BME280;58465;51.534;9.934;2023-06-14T04:02:30;99969.78;;;16.16;48.33
70841;BME280;58465;51.534;9.934;2023-06-14T04:04:55;99973.06;;;16.22;48.02
70841;BME280;58465;51.534;9.934;2023-06-14T04:07:20;99975.16;;;16.34;47.63
70841;BME280;58465;51.534;9.934;2023-06-14T04:09:50;99973.44;;;16.33;47.66
70841;BME280;58465;51.534;9.934;2023-06-14T04:12:15;99973.59;;;16.30;47.99
70841;BME280;58465;51.534;9.934;2023-06-14T04:14:40;99977.53;;;16.23;47.96
70841;BME280;58465;51.534;9.934;2023-06-14T04:17:06;99977.53;;;16.23;47.98
70841;BME280;58465;51.534;9.934;2023-06-14T04:19:32;99981.28;;;16.19;48.12
70841;BME280;58465;51.534;9.934;2023-06-14T04:21:58;99980.41;;;16.19;48.32
70841;BME280;58465;51.534;9.934;2023-06-14T04:24:27;99988.78;;;16.13;48.62
70841;BME280;58465;51.534;9.934;2023-06-14T04:26:58;99992.63;;;16.07;48.82
70841;BME280;58465;51.534;9.934;2023-06-14T04:29:23;99997.16;;;16.25;48.20
70841;BME280;58465;51.534;9.934;2023-06-14T04:31:49;99990.84;;;16.26;48.38
70841;BME280;58465;51.534;9.934;2023-06-14T04:34:14;99998.66;;;16.32;48.24
70841;BME280;58465;51.534;9.934;2023-06-14T04:36:43;100010.19;;;16.16;48.67
70841;BME280;58465;51.534;9.934;2023-06-14T04:39:14;100016.41;;;16.37;48.38
70841;BME280;58465;51.534;9.934;2023-06-14T04:41:39;100016.16;;;16.43;48.11
70841;BME280;58465;51.534;9.934;2023-06-14T04:44:05;100015.84;;;16.49;47.89
70841;BME280;58465;51.534;9.934;2023-06-14T04:46:30;100028.09;;;16.56;47.95
70841;BME280;58465;51.534;9.934;2023-06-14T04:48:57;100031.19;;;16.67;47.76
70841;BME280;58465;51.534;9.934;2023-06-14T04:51:23;100026.72;;;16.66;47.78
70841;BME280;58465;51.534;9.934;2023-06-14T04:53:55;100020.47;;;16.65;47.90
70841;BME280;58465;51.534;9.934;2023-06-14T04:56:22;100023.84;;;16.31;48.77
70841;BME280;58465;51.534;9.934;2023-06-14T04:58:48;100022.31;;;16.45;48.75
70841;BME280;58465;51.534;9.934;2023-06-14T05:01:13;100019.56;;;16.46;48.81
70841;BME280;58465;51.534;9.934;2023-06-14T05:03:38;100028.72;;;16.62;48.12
70841;BME280;58465;51.534;9.934;2023-06-14T05:06:04;100028.50;;;16.47;48.47
70841;BME280;58465;51.534;9.934;2023-06-14T05:08:29;100031.75;;;16.74;47.97
70841;BME280;58465;51.534;9.934;2023-06-14T05:10:55;100038.69;;;16.79;47.80
70841;BME280;58465;51.534;9.934;2023-06-14T05:13:20;100039.19;;;16.87;47.92
70841;BME280;58465;51.534;9.934;2023-06-14T05:15:47;100030.88;;;17.11;47.28
70841;BME280;58465;51.534;9.934;2023-06-14T05:18:12;100033.31;;;17.15;47.29
70841;BME280;58465;51.534;9.934;2023-06-14T05:20:38;100033.94;;;16.84;48.07
70841;BME280;58465;51.534;9.934;2023-06-14T05:23:03;100033.50;;;16.75;48.36
70841;BME280;58465;51.534;9.934;2023-06-14T05:25:29;100036.50;;;16.87;48.43
70841;BME280;58465;51.534;9.934;2023-06-14T05:27:54;100035.16;;;17.15;47.59
70841;BME280;58465;51.534;9.934;2023-06-14T05:30:20;100041.50;;;17.31;47.27
70841;BME280;58465;51.534;9.934;2023-06-14T05:32:45;100037.03;;;17.13;47.71
70841;BME280;58465;51.534;9.934;2023-06-14T05:35:11;100040.34;;;17.00;47.77
70841;BME280;58465;51.534;9.934;2023-06-14T05:37:37;100045.44;;;17.06;48.01
70841;BME280;58465;51.534;9.934;2023-06-14T05:40:04;100046.53;;;17.02;48.38
70841;BME280;58465;51.534;9.934;2023-06-14T05:42:34;100047.53;;;17.19;47.73
70841;BME280;58465;51.534;9.934;2023-06-14T05:44:59;100044.56;;;17.59;46.74
70841;BME280;58465;51.534;9.934;2023-06-14T05:47:26;100044.59;;;17.23;47.90
70841;BME280;58465;51.534;9.934;2023-06-14T05:49:52;100042.63;;;17.27;47.42
70841;BME280;58465;51.534;9.934;2023-06-14T05:52:18;100042.91;;;17.57;47.12
70841;BME280;58465;51.534;9.934;2023-06-14T05:54:43;100041.25;;;17.54;47.35
70841;BME280;58465;51.534;9.934;2023-06-14T05:57:08;100048.69;;;17.68;46.80
70841;BME280;58465;51.534;9.934;2023-06-14T05:59:34;100053.66;;;17.93;46.32
70841;BME280;58465;51.534;9.934;2023-06-14T06:01:59;100058.44;;;17.70;46.99
70841;BME280;58465;51.534;9.934;2023-06-14T06:04:25;100060.28;;;17.51;47.18
70841;BME280;58465;51.534;9.934;2023-06-14T06:06:50;100063.00;;;17.51;47.37
70841;BME280;58465;51.534;9.934;2023-06-14T06:09:17;100057.88;;;18.15;46.07
70841;BME280;58465;51.534;9.934;2023-06-14T06:11:42;100053.22;;;19.15;43.73
70841;BME280;58465;51.534;9.934;2023-06-14T06:14:08;100056.66;;;20.24;41.29
70841;BME280;58465;51.534;9.934;2023-06-14T06:16:33;100066.72;;;21.07;39.42
70841;BME280;58465;51.534;9.934;2023-06-14T06:18:59;100058.63;;;21.61;38.25
70841;BME280;58465;51.534;9.934;2023-06-14T06:21:25;100060.63;;;21.71;38.29
70841;BME280;58465;51.534;9.934;2023-06-14T06:23:51;100063.28;;;21.32;38.92
70841;BME280;58465;51.534;9.934;2023-06-14T06:26:17;100063.53;;;21.00;39.58
70841;BME280;58465;51.534;9.934;2023-06-14T06:28:42;100060.47;;;20.64;40.38
70841;BME280;58465;51.534;9.934;2023-06-14T06:31:08;100057.28;;;20.43;40.86
70841;BME280;58465;51.534;9.934;2023-06-14T06:33:33;100051.00;;;20.13;41.34
70841;BME280;58465;51.534;9.934;2023-06-14T06:35:58;100064.16;;;20.05;41.82
70841;BME280;58465;51.534;9.934;2023-06-14T06:38:23;100058.66;;;20.06;41.66
70841;BME280;58465;51.534;9.934;2023-06-14T06:40:48;100067.16;;;20.58;40.56
70841;BME280;58465;51.534;9.934;2023-06-14T06:43:14;100064.31;;;22.10;37.68
70841;BME280;58465;51.534;9.934;2023-06-14T06:45:42;100066.16;;;22.60;36.42
70841;BME280;58465;51.534;9.934;2023-06-14T06:48:07;100071.63;;;22.47;36.50
70841;BME280;58465;51.534;9.934;2023-06-14T06:50:34;100076.84;;;22.63;36.18
70841;BME280;58465;51.534;9.934;2023-06-14T06:53:03;100079.91;;;22.84;35.98
70841;BME280;58465;51.534;9.934;2023-06-14T06:55:28;100072.91;;;23.05;35.78
70841;BME280;58465;51.534;9.934;2023-06-14T06:57:53;100077.41;;;23.17;34.97
70841;BME280;58465;51.534;9.934;2023-06-14T07:00:20;100077.31;;;23.19;35.36
70841;BME280;58465;51.534;9.934;2023-06-14T07:05:11;100080.31;;;22.40;36.85
70841;BME280;58465;51.534;9.934;2023-06-14T07:07:36;100079.50;;;21.73;38.22
70841;BME280;58465;51.534;9.934;2023-06-14T07:10:02;100090.84;;;21.26;39.28
70841;BME280;58465;51.534;9.934;2023-06-14T07:12:30;100092.63;;;20.70;40.44
70841;BME280;58465;51.534;9.934;2023-06-14T07:14:57;100094.19;;;20.74;40.35
70841;BME280;58465;51.534;9.934;2023-06-14T07:17:22;100093.00;;;21.06;39.65
70841;BME280;58465;51.534;9.934;2023-06-14T07:20:01;100101.16;;;21.21;39.37
70841;BME280;58465;51.534;9.934;2023-06-14T07:22:43;100093.50;;;20.70;40.30
70841;BME280;58465;51.534;9.934;2023-06-14T07:25:12;100099.72;;;20.58;40.63
70841;BME280;58465;51.534;9.934;2023-06-14T07:27:40;100102.63;;;20.11;41.32
70841;BME280;58465;51.534;9.934;2023-06-14T07:30:07;100103.81;;;20.21;41.10
70841;BME280;58465;51.534;9.934;2023-06-14T07:32:33;100115.22;;;20.12;41.55
70841;BME280;58465;51.534;9.934;2023-06-14T07:34:58;100104.50;;;20.25;41.35
70841;BME280;58465;51.534;9.934;2023-06-14T07:37:23;100106.59;;;20.50;40.68
70841;BME280;58465;51.534;9.934;2023-06-14T07:39:49;100100.81;;;20.26;41.23
70841;BME280;58465;51.534;9.934;2023-06-14T07:42:14;100103.88;;;20.35;41.02
70841;BME280;58465;51.534;9.934;2023-06-14T07:44:39;100113.38;;;20.43;40.75
70841;BME280;58465;51.534;9.934;2023-06-14T07:47:05;100106.97;;;20.58;40.48
70841;BME280;58465;51.534;9.934;2023-06-14T07:49:30;100107.09;;;20.70;39.76
70841;BME280;58465;51.534;9.934;2023-06-14T07:51:55;100110.28;;;20.63;40.16
70841;BME280;58465;51.534;9.934;2023-06-14T07:54:20;100109.59;;;20.59;39.89
70841;BME280;58465;51.534;9.934;2023-06-14T07:56:50;100108.06;;;20.55;40.44
70841;BME280;58465;51.534;9.934;2023-06-14T07:59:16;100097.88;;;20.45;40.61
70841;BME280;58465;51.534;9.934;2023-06-14T08:01:41;100103.31;;;20.45;40.65
70841;BME280;58465;51.534;9.934;2023-06-14T08:04:16;100108.91;;;21.27;39.39
70841;BME280;58465;51.534;9.934;2023-06-14T08:06:41;100098.06;;;22.20;37.76
70841;BME280;58465;51.534;9.934;2023-06-14T08:09:10;100107.75;;;22.24;37.03
70841;BME280;58465;51.534;9.934;2023-06-14T08:11:35;100106.22;;;22.71;36.57
70841;BME280;58465;51.534;9.934;2023-06-14T08:14:01;100110.59;;;22.73;36.05
70841;BME280;58465;51.534;9.934;2023-06-14T08:16:26;100098.50;;;21.87;37.16
70841;BME280;58465;51.534;9.934;2023-06-14T08:18:51;100110.22;;;22.14;37.13
70841;BME280;58465;51.534;9.934;2023-06-14T08:21:16;100116.34;;;22.31;36.26
70841;BME280;58465;51.534;9.934;2023-06-14T08:23:42;100105.53;;;22.04;36.63
70841;BME280;58465;51.534;9.934;2023-06-14T08:26:08;100117.19;;;21.79;37.45
70841;BME280;58465;51.534;9.934;2023-06-14T08:28:34;100112.16;;;22.00;36.82
70841;BME280;58465;51.534;9.934;2023-06-14T08:30:59;100109.50;;;22.50;35.95
70841;BME280;58465;51.534;9.934;2023-06-14T08:33:24;100103.28;;;22.61;35.79
70841;BME280;58465;51.534;9.934;2023-06-14T08:35:50;100107.75;;;22.49;35.79
70841;BME280;58465;51.534;9.934;2023-06-14T08:38:15;100112.31;;;23.00;34.79
70841;BME280;58465;51.534;9.934;2023-06-14T08:40:41;100102.75;;;22.94;35.02
70841;BME280;58465;51.534;9.934;2023-06-14T08:43:08;100098.19;;;22.44;35.88
70841;BME280;58465;51.534;9.934;2023-06-14T08:45:33;100100.34;;;22.64;35.63
70841;BME280;58465;51.534;9.934;2023-06-14T08:47:59;100102.75;;;22.43;35.74
70841;BME280;58465;51.534;9.934;2023-06-14T08:50:26;100101.91;;;22.93;35.10
70841;BME280;58465;51.534;9.934;2023-06-14T08:52:54;100095.41;;;23.20;34.42
70841;BME280;58465;51.534;9.934;2023-06-14T08:55:23;100093.44;;;23.22;34.42
70841;BME280;58465;51.534;9.934;2023-06-14T08:57:54;100100.41;;;23.26;34.44
70841;BME280;58465;51.534;9.934;2023-06-14T09:00:20;100103.75;;;23.29;34.11
70841;BME280;58465;51.534;9.934;2023-06-14T09:02:46;100105.16;;;23.72;33.24
70841;BME280;58465;51.534;9.934;2023-06-14T09:05:13;100099.06;;;22.95;34.20
70841;BME280;58465;51.534;9.934;2023-06-14T09:07:41;100105.22;;;23.22;33.63
70841;BME280;58465;51.534;9.934;2023-06-14T09:10:15;100107.44;;;23.54;33.25
70841;BME280;58465;51.534;9.934;2023-06-14T09:12:41;100092.06;;;24.12;32.11
70841;BME280;58465;51.534;9.934;2023-06-14T09:15:08;100102.09;;;24.46;31.22
70841;BME280;58465;51.534;9.934;2023-06-14T09:17:37;100097.97;;;23.71;32.55
70841;BME280;58465;51.534;9.934;2023-06-14T09:20:03;100101.31;;;23.50;33.14
70841;BME280;58465;51.534;9.934;2023-06-14T09:22:33;100101.47;;;23.84;32.52
70841;BME280;58465;51.534;9.934;2023-06-14T09:24:59;100098.03;;;24.17;31.76
70841;BME280;58465;51.534;9.934;2023-06-14T09:27:28;100100.28;;;23.88;32.24
70841;BME280;58465;51.534;9.934;2023-06-14T09:29:54;100097.69;;;23.26;32.85
70841;BME280;58465;51.534;9.934;2023-06-14T09:32:21;100101.78;;;23.92;31.71
70841;BME280;58465;51.534;9.934;2023-06-14T09:34:47;100097.88;;;24.31;30.93
70841;BME280;58465;51.534;9.934;2023-06-14T09:37:12;100105.75;;;24.23;30.60
70841;BME280;58465;51.534;9.934;2023-06-14T09:39:50;100105.38;;;23.68;31.22
70841;BME280;58465;51.534;9.934;2023-06-14T09:42:17;100103.31;;;23.72;31.16
70841;BME280;58465;51.534;9.934;2023-06-14T09:44:48;100105.47;;;23.43;31.80
70841;BME280;58465;51.534;9.934;2023-06-14T09:47:15;100112.44;;;24.19;30.72
70841;BME280;58465;51.534;9.934;2023-06-14T09:49:41;100100.81;;;24.04;30.53
70841;BME280;58465;51.534;9.934;2023-06-14T09:52:10;100105.72;;;23.88;31.09
70841;BME280;58465;51.534;9.934;2023-06-14T09:54:41;100106.47;;;23.66;31.40
70841;BME280;58465;51.534;9.934;2023-06-14T09:57:10;100111.78;;;23.80;31.55
70841;BME280;58465;51.534;9.934;2023-06-14T09:59:40;100099.09;;;24.03;30.86
70841;BME280;58465;51.534;9.934;2023-06-14T10:02:11;100106.34;;;24.50;30.24
70841;BME280;58465;51.534;9.934;2023-06-14T10:04:41;100106.47;;;24.49;30.10
70841;BME280;58465;51.534;9.934;2023-06-14T10:07:15;100116.66;;;24.91;29.28
70841;BME280;58465;51.534;9.934;2023-06-14T10:09:45;100101.34;;;24.44;29.61
70841;BME280;58465;51.534;9.934;2023-06-14T10:12:16;100106.19;;;24.52;29.79
70841;BME280;58465;51.534;9.934;2023-06-14T10:14:47;100114.13;;;23.74;30.35
70841;BME280;58465;51.534;9.934;2023-06-14T10:17:22;100115.63;;;23.41;30.88
70841;BME280;58465;51.534;9.934;2023-06-14T10:19:57;100113.19;;;23.62;30.61
70841;BME280;58465;51.534;9.934;2023-06-14T10:22:56;100105.22;;;23.83;30.17
70841;BME280;58465;51.534;9.934;2023-06-14T10:25:28;100104.13;;;23.61;30.76
70841;BME280;58465;51.534;9.934;2023-06-14T10:28:02;100096.50;;;23.78;30.82
70841;BME280;58465;51.534;9.934;2023-06-14T10:30:28;100085.28;;;23.93;30.23
70841;BME280;58465;51.534;9.934;2023-06-14T10:33:06;100099.00;;;23.81;29.96
70841;BME280;58465;51.534;9.934;2023-06-14T10:35:32;100091.81;;;23.56;30.34
70841;BME280;58465;51.534;9.934;2023-06-14T10:38:12;100082.31;;;23.49;30.53
70841;BME280;58465;51.534;9.934;2023-06-14T10:40:38;100086.78;;;23.62;29.73
70841;BME280;58465;51.534;9.934;2023-06-14T10:43:23;100089.97;;;24.15;29.22
70841;BME280;58465;51.534;9.934;2023-06-14T10:46:11;100077.50;;;24.00;29.68
70841;BME280;58465;51.534;9.934;2023-06-14T10:48:40;100092.94;;;24.47;29.49
70841;BME280;58465;51.534;9.934;2023-06-14T10:51:15;100091.66;;;24.51;28.66
70841;BME280;58465;51.534;9.934;2023-06-14T10:53:42;100079.25;;;24.36;28.30
70841;BME280;58465;51.534;9.934;2023-06-14T10:56:08;100068.84;;;24.41;28.27
70841;BME280;58465;51.534;9.934;2023-06-14T10:58:33;100079.78;;;25.30;27.93
70841;BME280;58465;51.534;9.934;2023-06-14T11:00:59;100074.25;;;25.96;27.58
70841;BME280;58465;51.534;9.934;2023-06-14T11:03:51;100072.88;;;25.69;27.45
70841;BME280;58465;51.534;9.934;2023-06-14T11:06:22;100066.66;;;26.20;27.22
70841;BME280;58465;51.534;9.934;2023-06-14T11:11:52;100074.59;;;26.02;26.65
70841;BME280;58465;51.534;9.934;2023-06-14T11:14:19;100075.25;;;25.95;26.60
70841;BME280;58465;51.534;9.934;2023-06-14T11:16:49;100075.13;;;25.64;27.55
70841;BME280;58465;51.534;9.934;2023-06-14T11:19:14;100067.22;;;26.14;26.74
70841;BME280;58465;51.534;9.934;2023-06-14T11:21:46;100077.72;;;26.81;26.31
70841;BME280;58465;51.534;9.934;2023-06-14T11:24:12;100067.28;;;26.75;26.14
70841;BME280;58465;51.534;9.934;2023-06-14T11:26:38;100056.41;;;26.64;26.19
70841;BME280;58465;51.534;9.934;2023-06-14T11:29:03;100063.09;;;27.01;25.92
70841;BME280;58465;51.534;9.934;2023-06-14T11:31:28;100066.41;;;27.35;24.98
70841;BME280;58465;51.534;9.934;2023-06-14T11:33:59;100064.19;;;26.89;25.38
70841;BME280;58465;51.534;9.934;2023-06-14T11:36:31;100062.88;;;25.79;27.41
70841;BME280;58465;51.534;9.934;2023-06-14T11:39:04;100062.06;;;27.32;25.72
70841;BME280;58465;51.534;9.934;2023-06-14T11:41:39;100067.22;;;31.03;21.10
70841;BME280;58465;51.534;9.934;2023-06-14T11:44:05;100055.38;;;27.65;24.34
70841;BME280;58465;51.534;9.934;2023-06-14T11:46:31;100044.41;;;26.55;25.60
70841;BME280;58465;51.534;9.934;2023-06-14T11:48:56;100043.72;;;26.32;26.35
70841;BME280;58465;51.534;9.934;2023-06-14T11:51:22;100037.53;;;26.91;25.37
70841;BME280;58465;51.534;9.934;2023-06-14T11:53:47;100039.34;;;27.21;25.02
70841;BME280;58465;51.534;9.934;2023-06-14T11:56:13;100039.34;;;27.21;24.66
70841;BME280;58465;51.534;9.934;2023-06-14T11:58:39;100038.19;;;27.73;24.38
70841;BME280;58465;51.534;9.934;2023-06-14T12:01:05;100048.28;;;29.14;22.57
70841;BME280;58465;51.534;9.934;2023-06-14T12:03:30;100048.31;;;29.32;22.54
70841;BME280;58465;51.534;9.934;2023-06-14T12:06:05;100048.19;;;30.83;20.75
70841;BME280;58465;51.534;9.934;2023-06-14T12:08:35;100053.94;;;31.32;20.55
70841;BME280;58465;51.534;9.934;2023-06-14T12:11:04;100062.22;;;33.27;18.34
70841;BME280;58465;51.534;9.934;2023-06-14T12:13:30;100053.03;;;32.79;18.72
70841;BME280;58465;51.534;9.934;2023-06-14T12:15:56;100050.28;;;30.97;20.26
70841;BME280;58465;51.534;9.934;2023-06-14T12:18:32;100047.88;;;28.72;23.14
70841;BME280;58465;51.534;9.934;2023-06-14T12:20:59;100042.88;;;28.95;22.97
70841;BME280;58465;51.534;9.934;2023-06-14T12:23:38;100046.38;;;29.69;22.09
70841;BME280;58465;51.534;9.934;2023-06-14T12:26:04;100044.81;;;32.38;19.41
70841;BME280;58465;51.534;9.934;2023-06-14T12:28:31;100033.16;;;30.08;21.63
70841;BME280;58465;51.534;9.934;2023-06-14T12:30:56;100031.09;;;29.57;22.19
70841;BME280;58465;51.534;9.934;2023-06-14T12:33:24;100024.84;;;30.78;21.07
70841;BME280;58465;51.534;9.934;2023-06-14T12:35:50;100030.53;;;30.50;21.69
70841;BME280;58465;51.534;9.934;2023-06-14T12:38:15;100044.25;;;31.78;20.20
70841;BME280;58465;51.534;9.934;2023-06-14T12:40:41;100043.44;;;32.18;19.59
70841;BME280;58465;51.534;9.934;2023-06-14T12:43:07;100039.25;;;32.47;19.23
70841;BME280;58465;51.534;9.934;2023-06-14T12:45:32;100043.91;;;32.54;19.02
70841;BME280;58465;51.534;9.934;2023-06-14T12:47:58;100054.63;;;32.73;18.92
70841;BME280;58465;51.534;9.934;2023-06-14T12:50:23;100041.72;;;33.75;18.19
70841;BME280;58465;51.534;9.934;2023-06-14T12:52:48;100044.88;;;34.55;17.19
70841;BME280;58465;51.534;9.934;2023-06-14T12:55:13;100044.16;;;35.20;16.47
70841;BME280;58465;51.534;9.934;2023-06-14T12:57:39;100054.63;;;33.60;17.90
70841;BME280;58465;51.534;9.934;2023-06-14T13:00:05;100035.59;;;34.10;17.64